Time;durP1;ratioP1;P1;durP2;ratioP2;P2;SDS_P1;SDS_P2;PMS_P1;PMS_P2;Temp;Humidity;BMP_temperature;BMP_pressure;BME280_temperature;BME280_humidity;BME280_pressure;Samples;Min_cycle;Max_cycle;Signal;HPM_P1;HPM_P2
2021/12/15 00:00:52;;;;;;;23.98;15.38;;;;;;;;;;5037036;28;20041;-82
2021/12/15 00:03:19;;;;;;;25.02;15.35;;;;;;;;;;5037957;28;20028;-82
2021/12/15 00:05:46;;;;;;;23.80;15.52;;;;;;;;;;5039452;28;20079;-82
2021/12/15 00:08:12;;;;;;;23.35;14.95;;;;;;;;;;5037231;28;20037;-82
2021/12/15 00:10:39;;;;;;;23.38;14.98;;;;;;;;;;5038527;28;20032;-82
2021/12/15 00:13:05;;;;;;;23.38;15.38;;;;;;;;;;5038828;28;20025;-82
2021/12/15 00:15:31;;;;;;;22.60;14.18;;;;;;;;;;5038039;28;20032;-82
2021/12/15 00:17:58;;;;;;;20.67;13.70;;;;;;;;;;5038901;28;20395;-82
2021/12/15 00:20:24;;;;;;;23.77;14.10;;;;;;;;;;5037189;28;20112;-82
2021/12/15 00:22:52;;;;;;;20.70;13.30;;;;;;;;;;5038272;28;20049;-82
2021/12/15 00:25:19;;;;;;;19.42;13.77;;;;;;;;;;5037247;28;20030;-82
2021/12/15 00:27:45;;;;;;;20.13;12.43;;;;;;;;;;5037089;28;20033;-82
2021/12/15 00:30:12;;;;;;;21.42;13.60;;;;;;;;;;5037001;28;20029;-82
2021/12/15 00:32:38;;;;;;;22.38;12.95;;;;;;;;;;5037705;28;20025;-82
2021/12/15 00:35:05;;;;;;;19.25;12.55;;;;;;;;;;5036904;28;20049;-82
2021/12/15 00:37:32;;;;;;;22.85;13.68;;;;;;;;;;5036497;28;20033;-82
2021/12/15 00:39:58;;;;;;;20.20;13.05;;;;;;;;;;5036702;28;20029;-82
2021/12/15 00:42:24;;;;;;;23.80;15.07;;;;;;;;;;5037778;28;20038;-82
2021/12/15 00:44:53;;;;;;;22.52;14.43;;;;;;;;;;5040124;28;20048;-81
2021/12/15 00:47:19;;;;;;;21.77;13.70;;;;;;;;;;5049907;28;20027;-82
2021/12/15 00:49:45;;;;;;;22.90;13.90;;;;;;;;;;5048264;28;20440;-82
2021/12/15 00:52:11;;;;;;;23.13;14.32;;;;;;;;;;5050131;28;20264;-82
2021/12/15 00:54:37;;;;;;;21.58;14.88;;;;;;;;;;5049230;28;20026;-81
2021/12/15 00:57:04;;;;;;;20.00;14.35;;;;;;;;;;5049569;28;20032;-82
2021/12/15 00:59:30;;;;;;;24.65;14.70;;;;;;;;;;5048321;28;20037;-82
2021/12/15 01:01:57;;;;;;;23.23;15.25;;;;;;;;;;5048161;28;20036;-82
2021/12/15 01:04:24;;;;;;;23.92;16.00;;;;;;;;;;5038539;28;20106;-82
2021/12/15 01:06:52;;;;;;;22.30;14.23;;;;;;;;;;5036448;28;20084;-83
2021/12/15 01:09:24;;;;;;;21.02;13.88;;;;;;;;;;5035375;28;20022;-82
2021/12/15 01:19:53;;;;;;;20.30;13.23;;;;;;;;;;5038155;28;20094;-82
2021/12/15 01:22:42;;;;;;;21.50;13.20;;;;;;;;;;5036216;28;20025;-82
2021/12/15 01:25:11;;;;;;;22.25;13.82;;;;;;;;;;5033285;28;20033;-83
2021/12/15 01:27:37;;;;;;;21.70;13.93;;;;;;;;;;5037724;28;20041;-82
2021/12/15 01:30:05;;;;;;;21.60;13.75;;;;;;;;;;5035703;28;20021;-82
2021/12/15 01:32:31;;;;;;;19.73;13.00;;;;;;;;;;5037722;28;20112;-82
2021/12/15 01:34:57;;;;;;;19.42;13.15;;;;;;;;;;5037078;28;20052;-82
2021/12/15 01:37:23;;;;;;;20.02;13.73;;;;;;;;;;5038350;28;20071;-82
2021/12/15 01:39:54;;;;;;;19.90;12.70;;;;;;;;;;5048768;28;20119;-82
2021/12/15 01:42:20;;;;;;;18.92;12.25;;;;;;;;;;5049853;28;20462;-82
2021/12/15 01:47:31;;;;;;;19.77;12.32;;;;;;;;;;5047913;28;20055;-82
2021/12/15 01:49:57;;;;;;;18.25;12.88;;;;;;;;;;5048608;28;20034;-82
2021/12/15 01:52:28;;;;;;;21.92;13.30;;;;;;;;;;5042379;28;20023;-82
2021/12/15 01:54:58;;;;;;;19.40;11.98;;;;;;;;;;5036452;28;20028;-83
2021/12/15 01:57:30;;;;;;;20.02;12.43;;;;;;;;;;5036746;28;20231;-82
2021/12/15 01:59:57;;;;;;;19.50;12.77;;;;;;;;;;5017629;28;20427;-82
2021/12/15 02:02:23;;;;;;;20.20;13.70;;;;;;;;;;5035965;28;20057;-82
2021/12/15 02:04:50;;;;;;;19.30;12.52;;;;;;;;;;5036771;28;20017;-82
2021/12/15 02:07:18;;;;;;;18.65;11.85;;;;;;;;;;5034774;28;20026;-82
2021/12/15 02:12:20;;;;;;;17.95;12.07;;;;;;;;;;5017306;28;20052;-82
2021/12/15 02:14:47;;;;;;;17.67;11.55;;;;;;;;;;5030449;28;20124;-82
2021/12/15 02:17:13;;;;;;;18.33;12.00;;;;;;;;;;5035299;28;20097;-82
2021/12/15 02:19:39;;;;;;;19.27;12.20;;;;;;;;;;5035885;28;20040;-82
2021/12/15 02:22:05;;;;;;;19.20;12.18;;;;;;;;;;5037704;28;20060;-83
2021/12/15 02:24:34;;;;;;;17.98;10.85;;;;;;;;;;5036340;28;20029;-82
2021/12/15 02:27:01;;;;;;;18.60;12.23;;;;;;;;;;5035341;28;20485;-82
2021/12/15 02:29:32;;;;;;;18.90;12.15;;;;;;;;;;5034976;28;20117;-82
2021/12/15 02:34:56;;;;;;;18.90;11.55;;;;;;;;;;5038833;28;20048;-82
2021/12/15 02:37:20;;;;;;;19.02;11.18;;;;;;;;;;5035896;28;20029;-82
2021/12/15 02:39:55;;;;;;;19.88;11.90;;;;;;;;;;5035927;28;20395;-82
2021/12/15 02:42:22;;;;;;;18.17;12.25;;;;;;;;;;5036531;28;20131;-82
2021/12/15 02:44:48;;;;;;;18.45;11.95;;;;;;;;;;5034967;28;20045;-82
2021/12/15 02:47:17;;;;;;;19.42;11.85;;;;;;;;;;5034720;28;20029;-82
2021/12/15 02:49:45;;;;;;;19.35;13.32;;;;;;;;;;5034803;28;20085;-82
2021/12/15 02:52:11;;;;;;;16.52;11.23;;;;;;;;;;5035827;28;20025;-82
2021/12/15 02:54:37;;;;;;;18.55;12.23;;;;;;;;;;5034879;28;20017;-82
2021/12/15 02:57:09;;;;;;;20.08;12.60;;;;;;;;;;5034324;28;20503;-82
2021/12/15 02:59:53;;;;;;;16.48;11.43;;;;;;;;;;5033968;28;20033;-82
2021/12/15 03:05:15;;;;;;;18.73;11.27;;;;;;;;;;5035236;28;20037;-82
2021/12/15 03:08:03;;;;;;;17.00;11.57;;;;;;;;;;5034163;28;20071;-82
2021/12/15 03:15:59;;;;;;;18.33;12.18;;;;;;;;;;5035666;28;20062;-83
2021/12/15 03:18:26;;;;;;;21.17;13.20;;;;;;;;;;5033974;28;20029;-82
2021/12/15 03:21:00;;;;;;;17.95;11.93;;;;;;;;;;5035710;28;20021;-82
2021/12/15 03:23:27;;;;;;;19.35;12.05;;;;;;;;;;5035518;28;20037;-82
2021/12/15 03:25:54;;;;;;;19.70;12.77;;;;;;;;;;5034091;28;20018;-82
2021/12/15 03:37:03;;;;;;;19.92;11.82;;;;;;;;;;5049147;28;20033;-82
2021/12/15 03:39:28;;;;;;;19.73;11.60;;;;;;;;;;5050117;28;20025;-81
2021/12/15 03:42:00;;;;;;;17.40;11.02;;;;;;;;;;5042293;28;20048;-82
2021/12/15 03:44:26;;;;;;;16.52;10.35;;;;;;;;;;5039095;28;20044;-82
2021/12/15 03:46:53;;;;;;;16.45;10.73;;;;;;;;;;5037588;28;20025;-82
2021/12/15 03:49:19;;;;;;;18.73;11.82;;;;;;;;;;5037385;28;20026;-82
2021/12/15 03:51:45;;;;;;;18.00;11.38;;;;;;;;;;5038975;28;20056;-82
2021/12/15 03:54:11;;;;;;;17.13;11.20;;;;;;;;;;5037653;28;20061;-82
2021/12/15 03:56:40;;;;;;;18.40;11.95;;;;;;;;;;5037512;28;20187;-82
2021/12/15 03:59:07;;;;;;;15.68;10.85;;;;;;;;;;5037704;28;20112;-82
2021/12/15 04:01:33;;;;;;;16.00;11.02;;;;;;;;;;5038483;28;20025;-82
2021/12/15 04:03:59;;;;;;;16.70;11.05;;;;;;;;;;5038477;28;20056;-82
2021/12/15 04:06:27;;;;;;;17.67;12.00;;;;;;;;;;5038692;28;20034;-82
2021/12/15 04:08:53;;;;;;;16.77;11.38;;;;;;;;;;5038276;28;20032;-82
2021/12/15 04:11:20;;;;;;;15.55;11.23;;;;;;;;;;5038996;28;20025;-82
2021/12/15 04:13:47;;;;;;;16.58;10.52;;;;;;;;;;5038666;28;20029;-82
2021/12/15 04:16:28;;;;;;;15.35;10.65;;;;;;;;;;5038159;28;20090;-82
2021/12/15 04:18:54;;;;;;;16.60;11.00;;;;;;;;;;5036915;28;20029;-82
2021/12/15 04:21:20;;;;;;;15.43;10.52;;;;;;;;;;5037530;28;20037;-82
2021/12/15 04:23:51;;;;;;;14.88;9.55;;;;;;;;;;5037220;28;20037;-82
2021/12/15 04:26:17;;;;;;;14.63;9.93;;;;;;;;;;5035825;28;20033;-82
2021/12/15 04:28:44;;;;;;;16.33;10.20;;;;;;;;;;5038098;28;20033;-82
2021/12/15 04:31:12;;;;;;;15.00;10.63;;;;;;;;;;5029005;28;20029;-82
2021/12/15 04:33:40;;;;;;;16.58;11.25;;;;;;;;;;5030485;28;20025;-82
2021/12/15 04:36:08;;;;;;;18.33;10.68;;;;;;;;;;5035202;28;20013;-82
2021/12/15 04:38:35;;;;;;;14.23;9.98;;;;;;;;;;5051629;28;20332;-82
2021/12/15 04:41:04;;;;;;;15.75;10.50;;;;;;;;;;5035844;28;20049;-82
2021/12/15 04:43:33;;;;;;;15.77;10.10;;;;;;;;;;5036020;28;20033;-82
2021/12/15 04:45:59;;;;;;;15.35;10.57;;;;;;;;;;5036275;28;20030;-83
2021/12/15 04:48:26;;;;;;;14.88;10.70;;;;;;;;;;5037491;28;20021;-82
2021/12/15 04:50:52;;;;;;;15.05;10.10;;;;;;;;;;5036959;28;20041;-83
2021/12/15 04:53:18;;;;;;;15.05;9.05;;;;;;;;;;5035076;28;20041;-84
2021/12/15 04:55:44;;;;;;;15.48;9.90;;;;;;;;;;5036238;28;20112;-83
2021/12/15 04:58:11;;;;;;;14.65;9.75;;;;;;;;;;5034312;28;20034;-83
2021/12/15 05:00:41;;;;;;;15.57;10.00;;;;;;;;;;5035153;28;20093;-83
2021/12/15 05:03:07;;;;;;;16.70;8.82;;;;;;;;;;5035741;28;20029;-82
2021/12/15 05:05:34;;;;;;;15.63;9.60;;;;;;;;;;5037151;28;20108;-83
2021/12/15 05:08:00;;;;;;;14.32;9.85;;;;;;;;;;5036994;28;20116;-83
2021/12/15 05:10:26;;;;;;;16.40;10.18;;;;;;;;;;5037530;28;20021;-83
2021/12/15 05:12:53;;;;;;;14.02;9.60;;;;;;;;;;5029125;28;20040;-83
2021/12/15 05:15:19;;;;;;;15.52;9.68;;;;;;;;;;5036113;28;20028;-82
2021/12/15 05:17:45;;;;;;;16.45;9.98;;;;;;;;;;5035400;28;20052;-83
2021/12/15 05:20:12;;;;;;;14.77;9.50;;;;;;;;;;5035607;28;20132;-83
2021/12/15 05:22:38;;;;;;;15.35;9.15;;;;;;;;;;5036089;28;20025;-83
2021/12/15 05:25:06;;;;;;;13.50;9.07;;;;;;;;;;5036856;28;20123;-83
2021/12/15 05:27:32;;;;;;;13.60;9.02;;;;;;;;;;5037237;28;20029;-83
2021/12/15 05:29:58;;;;;;;13.90;9.43;;;;;;;;;;5037307;28;20259;-83
2021/12/15 05:32:24;;;;;;;13.82;8.98;;;;;;;;;;5040457;28;20022;-83
2021/12/15 05:34:57;;;;;;;15.30;9.65;;;;;;;;;;5038258;28;20037;-83
2021/12/15 05:37:23;;;;;;;;;;;;;;;;;;5037156;28;20049;-84
2021/12/15 05:39:50;;;;;;;15.48;9.05;;;;;;;;;;5036298;28;19913;-83
2021/12/15 05:42:18;;;;;;;12.82;8.07;;;;;;;;;;5035485;28;20041;-83
2021/12/15 05:44:44;;;;;;;18.33;10.80;;;;;;;;;;5035489;28;20060;-83
2021/12/15 05:47:10;;;;;;;13.68;8.68;;;;;;;;;;5035221;28;20037;-82
2021/12/15 05:49:36;;;;;;;13.35;8.52;;;;;;;;;;5036991;28;20023;-82
2021/12/15 05:52:03;;;;;;;12.63;8.15;;;;;;;;;;5036338;28;20036;-83
2021/12/15 05:54:29;;;;;;;12.77;8.40;;;;;;;;;;5035760;28;20432;-83
2021/12/15 05:56:55;;;;;;;13.98;9.05;;;;;;;;;;5034234;28;20052;-83
2021/12/15 05:59:21;;;;;;;14.65;9.25;;;;;;;;;;5035838;28;20099;-83
2021/12/15 06:01:47;;;;;;;14.93;9.43;;;;;;;;;;5037041;28;20053;-82
2021/12/15 06:04:13;;;;;;;14.63;9.57;;;;;;;;;;5035456;28;20045;-82
2021/12/15 06:06:40;;;;;;;16.00;9.98;;;;;;;;;;5032825;28;20022;-83
2021/12/15 06:09:07;;;;;;;16.05;9.80;;;;;;;;;;5030771;28;20025;-83
2021/12/15 06:11:34;;;;;;;16.58;10.65;;;;;;;;;;5029334;28;20088;-82
2021/12/15 06:14:00;;;;;;;17.00;10.38;;;;;;;;;;5030686;28;20396;-82
2021/12/15 06:16:26;;;;;;;17.85;11.25;;;;;;;;;;5032786;28;20414;-82
2021/12/15 06:18:53;;;;;;;18.27;11.45;;;;;;;;;;5026860;28;20046;-82
2021/12/15 06:21:20;;;;;;;18.52;11.18;;;;;;;;;;5030383;28;20092;-82
2021/12/15 06:23:47;;;;;;;16.48;10.27;;;;;;;;;;5029433;28;20025;-82
2021/12/15 06:26:13;;;;;;;18.23;10.82;;;;;;;;;;5029671;28;20368;-82
2021/12/15 06:28:39;;;;;;;16.85;10.35;;;;;;;;;;5029175;28;20061;-84
2021/12/15 06:34:09;;;;;;;16.92;11.13;;;;;;;;;;5028486;28;20770;-82
2021/12/15 06:36:36;;;;;;;16.00;10.48;;;;;;;;;;5027291;28;20040;-83
2021/12/15 06:39:04;;;;;;;17.92;11.35;;;;;;;;;;5028340;28;20339;-82
2021/12/15 06:41:31;;;;;;;18.50;12.15;;;;;;;;;;5027957;28;20503;-82
2021/12/15 06:43:59;;;;;;;19.20;10.85;;;;;;;;;;5027711;28;20110;-83
2021/12/15 07:00:41;;;;;;;20.10;12.65;;;;;;;;;;5026349;28;20039;-82
2021/12/15 07:03:07;;;;;;;16.38;10.35;;;;;;;;;;5030038;28;20057;-83
2021/12/15 07:05:34;;;;;;;18.73;11.15;;;;;;;;;;5030246;28;20388;-83
2021/12/15 07:08:01;;;;;;;17.35;11.20;;;;;;;;;;5033547;28;20092;-82
2021/12/15 07:10:29;;;;;;;19.38;11.57;;;;;;;;;;5033372;28;20030;-82
2021/12/15 07:12:56;;;;;;;18.15;11.18;;;;;;;;;;5047000;28;20033;-81
2021/12/15 07:15:22;;;;;;;18.23;11.73;;;;;;;;;;5031992;28;20083;-82
2021/12/15 07:17:51;;;;;;;17.58;11.23;;;;;;;;;;5048378;28;20387;-82
2021/12/15 07:22:58;;;;;;;21.52;11.70;;;;;;;;;;5033338;28;20037;-82
2021/12/15 07:25:24;;;;;;;19.17;11.35;;;;;;;;;;5032461;28;20025;-82
2021/12/15 07:27:50;;;;;;;18.33;11.07;;;;;;;;;;5033887;28;20048;-82
2021/12/15 07:30:16;;;;;;;19.95;11.30;;;;;;;;;;5035191;28;20022;-82
2021/12/15 07:32:43;;;;;;;19.05;11.27;;;;;;;;;;5029170;28;20377;-82
2021/12/15 07:35:11;;;;;;;17.50;11.07;;;;;;;;;;5015100;28;20472;-82
2021/12/15 07:37:37;;;;;;;19.02;11.32;;;;;;;;;;5046510;28;20502;-82
2021/12/15 07:40:06;;;;;;;19.52;11.95;;;;;;;;;;5031245;28;20041;-82
2021/12/15 07:42:42;;;;;;;20.27;12.25;;;;;;;;;;5033587;28;20045;-82
2021/12/15 07:45:09;;;;;;;20.00;11.85;;;;;;;;;;5034914;28;20033;-81
2021/12/15 07:47:35;;;;;;;20.20;11.75;;;;;;;;;;5033835;28;20041;-84
2021/12/15 07:50:02;;;;;;;19.10;11.07;;;;;;;;;;5037007;28;20112;-82
2021/12/15 07:52:29;;;;;;;18.65;10.77;;;;;;;;;;5032651;28;20017;-82
2021/12/15 07:54:56;;;;;;;18.80;10.88;;;;;;;;;;5027632;28;20028;-81
2021/12/15 07:57:23;;;;;;;18.17;11.05;;;;;;;;;;5031976;28;20041;-81
2021/12/15 07:59:50;;;;;;;18.17;11.35;;;;;;;;;;5036817;28;20028;-82
2021/12/15 08:02:17;;;;;;;18.45;10.48;;;;;;;;;;5032807;28;20132;-82
2021/12/15 08:04:43;;;;;;;20.17;11.02;;;;;;;;;;5034776;28;20116;-82
2021/12/15 08:07:09;;;;;;;18.30;10.65;;;;;;;;;;5032813;28;20206;-81
2021/12/15 08:09:37;;;;;;;19.40;10.85;;;;;;;;;;5033570;28;20068;-81
2021/12/15 08:12:03;;;;;;;18.98;11.18;;;;;;;;;;5031608;28;20028;-82
2021/12/15 08:14:29;;;;;;;17.88;11.52;;;;;;;;;;5034503;28;20529;-82
2021/12/15 08:16:55;;;;;;;18.80;11.95;;;;;;;;;;5033246;28;20053;-81
2021/12/15 08:19:21;;;;;;;15.60;10.32;;;;;;;;;;5034658;28;20029;-81
2021/12/15 08:21:47;;;;;;;16.92;10.43;;;;;;;;;;5034816;28;21178;-81
2021/12/15 08:24:14;;;;;;;15.90;10.55;;;;;;;;;;5033218;28;20487;-82
2021/12/15 08:26:40;;;;;;;17.77;11.02;;;;;;;;;;5033933;28;20522;-84
2021/12/15 08:29:06;;;;;;;16.08;10.57;;;;;;;;;;5052507;28;20489;-81
2021/12/15 08:31:33;;;;;;;19.15;10.90;;;;;;;;;;5035811;28;20032;-82
2021/12/15 08:33:59;;;;;;;17.42;11.30;;;;;;;;;;5038615;28;20130;-81
2021/12/15 08:36:25;;;;;;;15.40;10.38;;;;;;;;;;5034458;28;20398;-82
2021/12/15 08:38:52;;;;;;;16.58;10.98;;;;;;;;;;5034414;28;20029;-83
2021/12/15 08:41:23;;;;;;;17.88;10.68;;;;;;;;;;5036929;28;20474;-84
2021/12/15 08:43:50;;;;;;;17.52;10.80;;;;;;;;;;5033239;28;20084;-83
2021/12/15 08:46:18;;;;;;;17.52;10.85;;;;;;;;;;5036835;28;20029;-83
2021/12/15 08:48:46;;;;;;;16.13;10.48;;;;;;;;;;5036164;28;20025;-83
2021/12/15 08:51:13;;;;;;;19.25;10.98;;;;;;;;;;5036897;28;20024;-83
2021/12/15 08:53:41;;;;;;;17.95;10.80;;;;;;;;;;5036443;28;20120;-83
2021/12/15 08:56:08;;;;;;;18.92;11.30;;;;;;;;;;5037270;28;20108;-83
2021/12/15 08:58:34;;;;;;;19.23;11.88;;;;;;;;;;5035207;28;20033;-82
2021/12/15 09:01:00;;;;;;;18.52;11.90;;;;;;;;;;5036090;28;20041;-83
2021/12/15 09:03:27;;;;;;;17.25;11.77;;;;;;;;;;5031955;28;20164;-82
2021/12/15 09:05:54;;;;;;;19.77;11.68;;;;;;;;;;5021617;28;20037;-82
2021/12/15 09:08:21;;;;;;;20.77;12.13;;;;;;;;;;5035456;28;20053;-82
2021/12/15 09:10:48;;;;;;;18.10;11.25;;;;;;;;;;5037087;28;20104;-83
2021/12/15 09:13:14;;;;;;;18.42;11.05;;;;;;;;;;5035303;28;20029;-82
2021/12/15 09:15:41;;;;;;;20.23;11.98;;;;;;;;;;5038720;28;20061;-82
2021/12/15 09:18:08;;;;;;;17.13;10.98;;;;;;;;;;5039186;28;20025;-83
2021/12/15 09:20:35;;;;;;;19.98;12.48;;;;;;;;;;5039598;28;20022;-83
2021/12/15 09:23:03;;;;;;;17.33;10.77;;;;;;;;;;5036233;28;20328;-83
2021/12/15 09:25:30;;;;;;;18.83;11.50;;;;;;;;;;5036851;28;20435;-83
2021/12/15 09:27:59;;;;;;;26.05;12.18;;;;;;;;;;5036488;28;20029;-83
2021/12/15 09:30:26;;;;;;;18.92;11.70;;;;;;;;;;5034797;28;20017;-83
2021/12/15 09:32:52;;;;;;;19.08;10.90;;;;;;;;;;5034122;28;20116;-83
2021/12/15 09:35:19;;;;;;;19.25;11.70;;;;;;;;;;5027077;28;20108;-83
2021/12/15 09:37:45;;;;;;;20.42;12.68;;;;;;;;;;5037609;28;20454;-83
2021/12/15 09:40:13;;;;;;;20.52;12.10;;;;;;;;;;5036382;28;20092;-83
2021/12/15 09:42:40;;;;;;;18.67;11.73;;;;;;;;;;5034829;28;20044;-83
2021/12/15 09:45:28;;;;;;;21.08;13.23;;;;;;;;;;5037614;28;20091;-82
2021/12/15 10:04:20;;;;;;;17.58;11.52;;;;;;;;;;5035121;28;20042;-83
2021/12/15 10:17:47;;;;;;;16.60;10.65;;;;;;;;;;5034731;28;20041;-83
2021/12/15 10:20:15;;;;;;;16.20;10.48;;;;;;;;;;5034464;28;20372;-82
2021/12/15 10:22:46;;;;;;;15.32;10.23;;;;;;;;;;5032292;28;20044;-83
2021/12/15 10:25:16;;;;;;;17.33;11.02;;;;;;;;;;5033936;28;20037;-83
2021/12/15 10:27:42;;;;;;;17.50;11.57;;;;;;;;;;5033478;28;20108;-83
2021/12/15 10:30:08;;;;;;;19.13;11.55;;;;;;;;;;5028866;28;20076;-83
2021/12/15 10:32:35;;;;;;;17.58;9.57;;;;;;;;;;5025471;28;20013;-83
2021/12/15 10:35:04;;;;;;;14.18;8.95;;;;;;;;;;5034207;28;20113;-81
2021/12/15 10:37:30;;;;;;;17.42;10.88;;;;;;;;;;5034852;28;20033;-83
2021/12/15 10:40:15;;;;;;;13.95;9.70;;;;;;;;;;5034699;28;20036;-83
2021/12/15 10:42:42;;;;;;;14.43;10.05;;;;;;;;;;5032792;28;20420;-83
2021/12/15 10:45:10;;;;;;;15.43;10.05;;;;;;;;;;5034699;28;20443;-83
2021/12/15 10:47:49;;;;;;;14.80;9.52;;;;;;;;;;5033081;28;20618;-82
2021/12/15 10:50:17;;;;;;;13.63;9.15;;;;;;;;;;5035191;28;20032;-82
2021/12/15 10:52:51;;;;;;;16.20;9.65;;;;;;;;;;5034700;28;20398;-83
2021/12/15 10:55:17;;;;;;;13.07;9.27;;;;;;;;;;5032759;28;20037;-84
2021/12/15 10:57:44;;;;;;;13.68;8.43;;;;;;;;;;5034405;28;20086;-83
2021/12/15 11:00:12;;;;;;;15.20;8.63;;;;;;;;;;5034403;28;20068;-82
2021/12/15 11:02:39;;;;;;;15.23;9.15;;;;;;;;;;5035376;28;20052;-83
2021/12/15 11:05:10;;;;;;;15.10;9.40;;;;;;;;;;5034166;28;20036;-83
2021/12/15 11:07:52;;;;;;;14.60;9.43;;;;;;;;;;5050233;28;20108;-83
2021/12/15 11:10:27;;;;;;;17.60;9.87;;;;;;;;;;5052221;28;20029;-83
2021/12/15 11:12:57;;;;;;;14.18;8.40;;;;;;;;;;5051318;28;20021;-82
2021/12/15 11:15:31;;;;;;;19.95;10.13;;;;;;;;;;5054097;28;20015;-83
2021/12/15 11:17:57;;;;;;;13.57;7.88;;;;;;;;;;5050853;28;20030;-83
2021/12/15 11:20:27;;;;;;;16.38;9.70;;;;;;;;;;5051585;28;20040;-83
2021/12/15 11:22:55;;;;;;;13.25;8.27;;;;;;;;;;5031170;28;20717;-83
2021/12/15 11:25:42;;;;;;;15.15;8.43;;;;;;;;;;5036073;28;20033;-82
2021/12/15 11:28:19;;;;;;;14.32;7.90;;;;;;;;;;5033569;28;20021;-83
2021/12/15 11:30:58;;;;;;;16.13;9.90;;;;;;;;;;5033068;28;20025;-83
2021/12/15 11:33:41;;;;;;;14.02;8.57;;;;;;;;;;5033157;28;20029;-83
2021/12/15 11:36:22;;;;;;;15.50;9.40;;;;;;;;;;5023575;28;20026;-83
2021/12/15 11:38:48;;;;;;;16.75;10.57;;;;;;;;;;5038006;28;20025;-83
2021/12/15 11:41:17;;;;;;;13.35;9.63;;;;;;;;;;5032461;28;20558;-83
2021/12/15 11:44:03;;;;;;;14.73;9.48;;;;;;;;;;5037428;28;20030;-83
2021/12/15 11:46:29;;;;;;;15.65;9.05;;;;;;;;;;5032467;28;20029;-83
2021/12/15 11:49:05;;;;;;;19.27;10.32;;;;;;;;;;5034892;28;20036;-83
2021/12/15 11:51:36;;;;;;;13.70;8.43;;;;;;;;;;5038077;28;20029;-82
2021/12/15 11:54:04;;;;;;;15.43;9.23;;;;;;;;;;5053426;28;20398;-84
2021/12/15 11:56:35;;;;;;;11.98;7.70;;;;;;;;;;5054250;28;20036;-83
2021/12/15 11:59:17;;;;;;;13.68;8.70;;;;;;;;;;5054948;28;20017;-83
2021/12/15 12:01:52;;;;;;;13.75;8.38;;;;;;;;;;5037343;28;20085;-82
2021/12/15 12:04:24;;;;;;;14.00;8.05;;;;;;;;;;5055512;28;20017;-83
2021/12/15 12:06:53;;;;;;;13.82;8.60;;;;;;;;;;5036563;28;20048;-83
2021/12/15 12:09:20;;;;;;;14.25;8.77;;;;;;;;;;5036022;28;20022;-83
2021/12/15 12:11:54;;;;;;;13.75;7.95;;;;;;;;;;5037932;28;20455;-83
2021/12/15 12:14:38;;;;;;;12.38;8.02;;;;;;;;;;5038060;28;20043;-84
2021/12/15 12:17:08;;;;;;;14.27;7.68;;;;;;;;;;5034819;28;20471;-83
2021/12/15 12:19:34;;;;;;;12.02;8.23;;;;;;;;;;5038367;28;20022;-83
2021/12/15 12:22:00;;;;;;;13.18;8.90;;;;;;;;;;5036999;28;20017;-83
2021/12/15 12:24:27;;;;;;;15.68;8.90;;;;;;;;;;5035674;28;20667;-83
2021/12/15 12:26:53;;;;;;;12.15;8.38;;;;;;;;;;5036252;28;20515;-83
2021/12/15 12:29:19;;;;;;;13.85;7.78;;;;;;;;;;5034843;28;20025;-83
2021/12/15 12:31:45;;;;;;;11.77;7.30;;;;;;;;;;5035174;28;20093;-82
2021/12/15 12:34:11;;;;;;;12.35;6.72;;;;;;;;;;5035035;28;20044;-83
2021/12/15 12:36:38;;;;;;;11.60;7.18;;;;;;;;;;5034197;28;20171;-83
2021/12/15 12:39:06;;;;;;;12.13;7.82;;;;;;;;;;5036832;28;20386;-83
2021/12/15 12:41:38;;;;;;;10.88;6.95;;;;;;;;;;5037801;28;20096;-82
2021/12/15 12:44:05;;;;;;;14.63;7.70;;;;;;;;;;5037218;28;20025;-83
2021/12/15 12:46:42;;;;;;;11.73;7.30;;;;;;;;;;5038595;28;20021;-82
2021/12/15 13:00:20;;;;;;;11.57;6.95;;;;;;;;;;5036180;28;20380;-83
2021/12/15 13:02:50;;;;;;;11.20;6.85;;;;;;;;;;5046201;28;20606;-82
2021/12/15 13:05:35;;;;;;;10.18;6.80;;;;;;;;;;5033587;28;20531;-83
2021/12/15 13:08:24;;;;;;;10.57;6.45;;;;;;;;;;5033154;28;20058;-83
2021/12/15 13:10:53;;;;;;;11.77;6.70;;;;;;;;;;5025294;28;20128;-83
2021/12/15 13:13:21;;;;;;;12.02;7.47;;;;;;;;;;5037529;28;20395;-82
2021/12/15 13:15:57;;;;;;;10.70;6.57;;;;;;;;;;5035549;28;20029;-82
2021/12/15 13:18:23;;;;;;;17.50;7.65;;;;;;;;;;5035014;28;20060;-82
2021/12/15 13:20:57;;;;;;;12.10;7.25;;;;;;;;;;5037363;28;20530;-83
2021/12/15 13:23:59;;;;;;;11.07;7.13;;;;;;;;;;5035479;28;20040;-82
2021/12/15 13:29:28;;;;;;;14.30;6.53;;;;;;;;;;4973603;28;20114;-82
2021/12/15 13:31:56;;;;;;;11.85;6.65;;;;;;;;;;4959829;28;20026;-83
2021/12/15 13:34:39;;;;;;;12.18;6.53;;;;;;;;;;4975188;28;20038;-83
2021/12/15 13:37:06;;;;;;;11.98;7.68;;;;;;;;;;4959296;28;20042;-82
2021/12/15 13:39:44;;;;;;;11.30;6.68;;;;;;;;;;4959184;28;20102;-83
2021/12/15 13:42:14;;;;;;;12.40;7.15;;;;;;;;;;4959224;28;20592;-82
2021/12/15 13:44:44;;;;;;;11.57;7.03;;;;;;;;;;4975694;28;20093;-82
2021/12/15 13:47:40;;;;;;;10.70;6.78;;;;;;;;;;4958259;28;20031;-82
2021/12/15 13:50:17;;;;;;;10.75;6.70;;;;;;;;;;4963762;28;20049;-83
2021/12/15 13:52:44;;;;;;;13.13;6.43;;;;;;;;;;4974368;28;20035;-82
2021/12/15 13:55:29;;;;;;;13.40;6.65;;;;;;;;;;4974651;28;20057;-82
2021/12/15 13:58:12;;;;;;;11.38;7.07;;;;;;;;;;4959061;28;20493;-83
2021/12/15 14:00:42;;;;;;;11.43;6.85;;;;;;;;;;4955768;28;20035;-83
2021/12/15 14:03:08;;;;;;;12.90;7.55;;;;;;;;;;4998621;28;20042;-82
2021/12/15 14:05:46;;;;;;;12.80;7.45;;;;;;;;;;5035773;28;20048;-82
2021/12/15 14:08:17;;;;;;;11.65;7.20;;;;;;;;;;5034539;28;20574;-82
2021/12/15 14:10:43;;;;;;;12.75;7.97;;;;;;;;;;5035228;28;20108;-82
2021/12/15 14:13:09;;;;;;;12.05;7.57;;;;;;;;;;5034447;28;20063;-83
2021/12/15 14:15:38;;;;;;;14.90;7.95;;;;;;;;;;5036413;28;20018;-82
2021/12/15 14:18:09;;;;;;;13.23;8.98;;;;;;;;;;5034314;28;20044;-82
2021/12/15 14:20:42;;;;;;;15.02;8.20;;;;;;;;;;5034903;28;20036;-82
2021/12/15 14:23:10;;;;;;;14.52;8.45;;;;;;;;;;5034421;28;20029;-83
2021/12/15 14:25:37;;;;;;;17.38;10.82;;;;;;;;;;5035406;28;20025;-83
2021/12/15 14:28:32;;;;;;;16.48;10.95;;;;;;;;;;5035417;28;20491;-82
2021/12/15 14:31:01;;;;;;;13.77;8.95;;;;;;;;;;5003088;28;20423;-82
2021/12/15 14:33:29;;;;;;;13.73;8.27;;;;;;;;;;5016307;28;20483;-82
2021/12/15 14:35:56;;;;;;;12.98;8.68;;;;;;;;;;5033024;28;20210;-82
2021/12/15 14:38:39;;;;;;;12.85;7.65;;;;;;;;;;5034835;28;20028;-82
2021/12/15 14:41:07;;;;;;;13.75;8.38;;;;;;;;;;5037222;28;20128;-83
2021/12/15 14:43:33;;;;;;;13.05;8.23;;;;;;;;;;5037573;28;20414;-83
2021/12/15 14:45:59;;;;;;;12.10;8.70;;;;;;;;;;5034449;28;20017;-83
2021/12/15 14:48:25;;;;;;;13.77;8.13;;;;;;;;;;5034736;28;20441;-82
2021/12/15 14:50:51;;;;;;;11.52;8.25;;;;;;;;;;5033689;28;20029;-82
2021/12/15 14:53:17;;;;;;;15.60;7.63;;;;;;;;;;5036139;28;20030;-82
2021/12/15 14:55:43;;;;;;;14.45;8.25;;;;;;;;;;5030552;28;20472;-83
2021/12/15 14:58:18;;;;;;;15.52;9.20;;;;;;;;;;5029479;28;20021;-83
2021/12/15 15:00:44;;;;;;;13.13;8.48;;;;;;;;;;5035059;28;20034;-82
2021/12/15 15:03:11;;;;;;;12.07;8.45;;;;;;;;;;5033810;28;20032;-83
2021/12/15 15:05:38;;;;;;;13.40;8.85;;;;;;;;;;5034325;28;20075;-82
2021/12/15 15:08:06;;;;;;;14.27;8.70;;;;;;;;;;5034165;28;20113;-82
2021/12/15 15:10:34;;;;;;;11.73;8.70;;;;;;;;;;5033348;28;20033;-82
2021/12/15 15:13:00;;;;;;;13.30;8.50;;;;;;;;;;5033471;28;20040;-82
2021/12/15 15:15:30;;;;;;;11.60;7.65;;;;;;;;;;5034692;28;20391;-82
2021/12/15 15:18:03;;;;;;;12.45;8.00;;;;;;;;;;5032095;28;20057;-82
2021/12/15 15:20:29;;;;;;;;;;;;;;;;;;5035070;28;20103;-82
2021/12/15 15:22:57;;;;;;;15.18;8.98;;;;;;;;;;5036661;28;19905;-82
2021/12/15 15:25:25;;;;;;;12.27;7.32;;;;;;;;;;5032257;28;20510;-82
2021/12/15 15:27:56;;;;;;;13.02;8.13;;;;;;;;;;5024174;28;20067;-82
2021/12/15 15:30:24;;;;;;;12.48;7.63;;;;;;;;;;5037734;28;20022;-82
2021/12/15 15:32:52;;;;;;;15.02;8.65;;;;;;;;;;5036370;28;20391;-82
2021/12/15 15:35:32;;;;;;;12.45;8.27;;;;;;;;;;5037209;28;20028;-83
2021/12/15 15:38:00;;;;;;;14.38;8.90;;;;;;;;;;5038790;28;20026;-82
2021/12/15 15:40:35;;;;;;;15.20;8.93;;;;;;;;;;5036991;28;20038;-81
2021/12/15 15:43:04;;;;;;;12.88;7.93;;;;;;;;;;5037956;28;20322;-82
2021/12/15 15:45:32;;;;;;;12.80;8.25;;;;;;;;;;5037234;28;20018;-83
2021/12/15 15:47:59;;;;;;;12.82;8.40;;;;;;;;;;5036595;28;20032;-83
2021/12/15 15:50:26;;;;;;;12.82;8.20;;;;;;;;;;5040571;28;20018;-83
2021/12/15 15:52:53;;;;;;;11.25;7.53;;;;;;;;;;5036122;28;20029;-83
2021/12/15 15:55:21;;;;;;;14.45;8.07;;;;;;;;;;5037965;28;20051;-83
2021/12/15 15:57:49;;;;;;;12.55;7.72;;;;;;;;;;5036537;28;20064;-82
2021/12/15 16:00:17;;;;;;;11.93;7.20;;;;;;;;;;5037349;28;20040;-82
2021/12/15 16:02:43;;;;;;;11.75;6.75;;;;;;;;;;5037698;28;20042;-82
2021/12/15 16:05:12;;;;;;;10.13;6.22;;;;;;;;;;5038099;28;20025;-82
2021/12/15 16:07:38;;;;;;;11.45;6.68;;;;;;;;;;5038691;28;20029;-82